Time;durP1;ratioP1;P1;durP2;ratioP2;P2;SDS_P1;SDS_P2;PMS_P1;PMS_P2;Temp;Humidity;BMP_temperature;BMP_pressure;BME280_temperature;BME280_humidity;BME280_pressure;Samples;Min_cycle;Max_cycle;Signal;HPM_P1;HPM_P2
2021/06/16 00:00:02;;;;;;;0.10;0.10;;;22.20;71.30;;;;;;5066566;28;20377;-60
2021/06/16 00:02:28;;;;;;;0.10;0.10;;;22.20;71.10;;;;;;5067381;28;20033;-60
2021/06/16 00:04:53;;;;;;;0.00;0.00;;;22.20;71.70;;;;;;5067520;28;20099;-61
2021/06/16 00:07:19;;;;;;;0.00;0.00;;;22.10;71.80;;;;;;5067034;28;20035;-61
2021/06/16 00:09:45;;;;;;;0.10;0.10;;;22.10;72.20;;;;;;5066946;28;20079;-63
2021/06/16 00:12:10;;;;;;;0.10;0.10;;;22.10;72.10;;;;;;5067948;28;20537;-61
2021/06/16 00:14:39;;;;;;;0.00;0.00;;;22.00;72.60;;;;;;5066529;28;20032;-62
2021/06/16 00:17:06;;;;;;;0.10;0.10;;;22.00;72.50;;;;;;5067127;28;20044;-61
2021/06/16 00:19:32;;;;;;;0.10;0.10;;;22.00;73.10;;;;;;5067015;28;20028;-61
2021/06/16 00:22:00;;;;;;;0.10;0.10;;;22.00;74.50;;;;;;5066661;28;20044;-61
2021/06/16 00:24:26;;;;;;;0.10;0.10;;;21.90;74.40;;;;;;5066356;28;20047;-62
2021/06/16 00:26:54;;;;;;;0.10;0.10;;;21.90;74.10;;;;;;5082304;28;20492;-62
2021/06/16 00:29:20;;;;;;;0.03;0.03;;;21.90;74.30;;;;;;5066463;28;20226;-63
2021/06/16 00:31:46;;;;;;;0.10;0.10;;;21.90;73.90;;;;;;5067324;28;20032;-62
2021/06/16 00:34:12;;;;;;;0.00;0.00;;;21.80;74.60;;;;;;5053103;28;20032;-63
2021/06/16 00:36:42;;;;;;;0.05;0.05;;;21.70;74.70;;;;;;5064877;28;20028;-63
2021/06/16 00:39:08;;;;;;;0.00;0.00;;;21.60;75.20;;;;;;5066256;28;20441;-61
2021/06/16 00:41:34;;;;;;;0.00;0.00;;;21.60;75.90;;;;;;5065676;28;20113;-61
2021/06/16 00:44:00;;;;;;;0.10;0.10;;;21.60;76.10;;;;;;5066123;28;20035;-61
2021/06/16 00:46:26;;;;;;;0.57;0.57;;;21.60;77.40;;;;;;5066565;28;20029;-63
2021/06/16 00:48:51;;;;;;;0.00;0.00;;;21.50;77.20;;;;;;5066530;28;20028;-61
2021/06/16 00:51:17;;;;;;;0.10;0.10;;;21.50;77.30;;;;;;5063340;28;20116;-61
2021/06/16 00:53:43;;;;;;;0.03;0.03;;;21.40;77.50;;;;;;5065413;28;20032;-62
2021/06/16 00:56:08;;;;;;;0.10;0.10;;;21.40;77.70;;;;;;5066016;28;20032;-61
2021/06/16 00:58:34;;;;;;;0.05;0.05;;;21.40;78.40;;;;;;5064662;28;20037;-62
2021/06/16 01:01:11;;;;;;;0.00;0.00;;;21.20;78.90;;;;;;5066154;28;20052;-61
2021/06/16 01:03:50;;;;;;;0.10;0.10;;;21.30;79.00;;;;;;5065113;28;20073;-61
2021/06/16 01:06:20;;;;;;;0.10;0.10;;;21.30;79.10;;;;;;5066766;28;20032;-61
2021/06/16 01:09:16;;;;;;;0.00;0.00;;;21.30;79.00;;;;;;5066021;28;20364;-61
2021/06/16 01:12:04;;;;;;;0.08;0.08;;;21.30;80.60;;;;;;5048139;28;20143;-61
2021/06/16 01:14:55;;;;;;;0.00;0.00;;;21.30;79.80;;;;;;5065575;28;20020;-61
2021/06/16 01:17:38;;;;;;;0.10;0.10;;;21.30;80.30;;;;;;5050679;28;20032;-61
2021/06/16 01:20:25;;;;;;;0.00;0.00;;;21.20;81.40;;;;;;5065486;28;20020;-61
2021/06/16 01:23:12;;;;;;;0.00;0.00;;;21.20;81.30;;;;;;5065479;28;20043;-61
2021/06/16 01:26:01;;;;;;;0.00;0.00;;;21.20;81.80;;;;;;5065742;28;20024;-61
2021/06/16 01:28:50;;;;;;;0.00;0.00;;;21.10;82.30;;;;;;5057969;28;20166;-61
2021/06/16 01:31:19;;;;;;;0.00;0.00;;;21.20;82.40;;;;;;5064455;28;20040;-62
2021/06/16 01:33:47;;;;;;;0.00;0.00;;;21.10;83.10;;;;;;5065755;28;20178;-62
2021/06/16 01:36:13;;;;;;;0.00;0.00;;;21.10;83.00;;;;;;5065525;28;20028;-62
2021/06/16 01:38:42;;;;;;;0.10;0.10;;;21.10;84.80;;;;;;5065786;28;20152;-62
2021/06/16 01:41:12;;;;;;;0.00;0.00;;;21.10;84.60;;;;;;5065177;28;20024;-63
2021/06/16 01:43:41;;;;;;;0.10;0.10;;;21.10;85.50;;;;;;5065566;28;20642;-62
2021/06/16 01:46:09;;;;;;;0.00;0.00;;;21.10;86.30;;;;;;5063576;28;20048;-62
2021/06/16 01:48:37;;;;;;;0.00;0.00;;;21.00;86.20;;;;;;5065083;28;20021;-62
2021/06/16 01:51:05;;;;;;;0.08;0.08;;;21.00;86.40;;;;;;5065558;28;20029;-62
2021/06/16 01:53:31;;;;;;;0.00;0.00;;;21.00;86.50;;;;;;5065367;28;20064;-63
2021/06/16 01:55:58;;;;;;;0.00;0.00;;;21.00;87.70;;;;;;5065348;28;20661;-62
2021/06/16 01:58:24;;;;;;;0.05;0.05;;;20.90;89.00;;;;;;5066145;28;21855;-62
2021/06/16 02:00:53;;;;;;;0.10;0.10;;;20.80;90.10;;;;;;5065443;28;20078;-62
2021/06/16 02:03:20;;;;;;;0.00;0.00;;;20.80;91.10;;;;;;5065544;28;20052;-63
2021/06/16 02:05:45;;;;;;;0.00;0.00;;;20.70;90.90;;;;;;5064534;28;20032;-62
2021/06/16 02:08:16;;;;;;;0.00;0.00;;;20.60;91.90;;;;;;5064489;28;20448;-63
2021/06/16 02:10:47;;;;;;;0.10;0.10;;;20.60;91.30;;;;;;5080877;28;20547;-62
2021/06/16 02:13:16;;;;;;;0.03;0.03;;;20.60;91.50;;;;;;5064647;28;20037;-62
2021/06/16 02:15:54;;;;;;;0.00;0.00;;;20.60;91.50;;;;;;5065110;28;20020;-62
2021/06/16 02:18:25;;;;;;;0.00;0.00;;;20.60;91.60;;;;;;5065501;28;20365;-61
2021/06/16 02:20:51;;;;;;;0.00;0.00;;;20.50;91.90;;;;;;5064279;28;20107;-61
2021/06/16 02:23:17;;;;;;;0.00;0.00;;;20.50;91.80;;;;;;5064598;28;20038;-61
2021/06/16 02:25:46;;;;;;;0.00;0.00;;;20.50;92.10;;;;;;5065152;28;20034;-60
2021/06/16 02:28:12;;;;;;;0.00;0.00;;;20.40;92.50;;;;;;5064892;28;20107;-61
2021/06/16 02:30:38;;;;;;;0.00;0.00;;;20.40;92.60;;;;;;5064489;28;20085;-60
2021/06/16 02:33:03;;;;;;;0.10;0.10;;;20.40;92.70;;;;;;5064584;28;20054;-60
2021/06/16 02:35:29;;;;;;;0.03;0.03;;;20.40;92.80;;;;;;5064305;28;20368;-61
2021/06/16 02:38:11;;;;;;;0.00;0.00;;;20.30;92.90;;;;;;5063110;28;20679;-61
2021/06/16 02:40:40;;;;;;;0.05;0.05;;;20.30;93.60;;;;;;5064970;28;20141;-61
2021/06/16 02:43:09;;;;;;;0.00;0.00;;;20.30;94.30;;;;;;5063097;28;20132;-61
2021/06/16 02:45:36;;;;;;;0.00;0.00;;;20.20;94.60;;;;;;5079836;28;20107;-62
2021/06/16 02:48:03;;;;;;;0.00;0.00;;;20.20;94.50;;;;;;5064553;28;20090;-61
2021/06/16 02:50:30;;;;;;;0.00;0.00;;;20.20;94.80;;;;;;5064915;28;20024;-61
2021/06/16 02:53:03;;;;;;;0.00;0.00;;;20.20;94.90;;;;;;5063986;28;20091;-60
2021/06/16 02:55:30;;;;;;;0.00;0.00;;;20.20;95.10;;;;;;5065028;28;20041;-62
2021/06/16 02:57:56;;;;;;;0.00;0.00;;;20.20;95.50;;;;;;5063351;28;20119;-61
2021/06/16 03:00:23;;;;;;;0.00;0.00;;;20.20;95.60;;;;;;5062014;28;20785;-61
2021/06/16 03:02:49;;;;;;;0.00;0.00;;;20.10;95.80;;;;;;5079028;28;20060;-61
2021/06/16 03:05:23;;;;;;;0.10;0.10;;;20.10;96.40;;;;;;5061376;28;20594;-61
2021/06/16 03:07:51;;;;;;;0.00;0.00;;;20.00;96.20;;;;;;5064559;28;20063;-61
2021/06/16 03:10:19;;;;;;;0.00;0.00;;;19.90;96.20;;;;;;5064901;28;20028;-61
2021/06/16 03:12:49;;;;;;;0.10;0.10;;;19.90;96.60;;;;;;5064846;28;21810;-60
2021/06/16 03:15:15;;;;;;;0.00;0.00;;;19.90;96.90;;;;;;5064778;28;20035;-60
2021/06/16 03:17:43;;;;;;;0.00;0.00;;;19.90;97.20;;;;;;5067835;28;20024;-60
2021/06/16 03:20:10;;;;;;;0.10;0.10;;;19.90;97.30;;;;;;5068032;28;20040;-60
2021/06/16 03:22:37;;;;;;;0.00;0.00;;;20.00;97.40;;;;;;5068429;28;20048;-61
2021/06/16 03:25:07;;;;;;;0.00;0.00;;;20.00;97.90;;;;;;5068744;28;20028;-60
2021/06/16 03:27:34;;;;;;;0.10;0.10;;;20.00;98.20;;;;;;5070273;28;20024;-60
2021/06/16 03:30:00;;;;;;;0.00;0.00;;;;;;;;;;5068357;28;20028;-62
2021/06/16 03:32:27;;;;;;;0.00;0.00;;;20.10;97.90;;;;;;5064063;28;20038;-61
2021/06/16 03:34:56;;;;;;;0.10;0.10;;;20.10;97.90;;;;;;5066919;28;20052;-61
2021/06/16 03:37:22;;;;;;;0.00;0.00;;;20.20;97.90;;;;;;5068605;28;20041;-60
2021/06/16 03:39:52;;;;;;;0.10;0.10;;;20.20;97.90;;;;;;5067754;28;20059;-60
2021/06/16 03:42:19;;;;;;;0.15;0.15;;;20.30;98.00;;;;;;5067422;28;20453;-61
2021/06/16 03:44:47;;;;;;;0.05;0.05;;;20.30;98.00;;;;;;5065988;28;20037;-61
2021/06/16 03:47:14;;;;;;;0.00;0.00;;;20.40;98.20;;;;;;5083146;28;20031;-60
2021/06/16 03:49:43;;;;;;;0.00;0.00;;;20.40;98.00;;;;;;5066484;28;20055;-60
2021/06/16 03:52:10;;;;;;;0.00;0.00;;;20.40;98.00;;;;;;5070129;28;20294;-60
2021/06/16 03:54:39;;;;;;;0.00;0.00;;;20.40;98.10;;;;;;5066785;28;20051;-61
2021/06/16 03:57:07;;;;;;;0.00;0.00;;;20.40;98.10;;;;;;5067066;28;20051;-62
2021/06/16 03:59:35;;;;;;;0.10;0.10;;;20.40;98.20;;;;;;5067638;28;20077;-60
2021/06/16 04:02:01;;;;;;;0.00;0.00;;;20.50;98.00;;;;;;5067186;28;20036;-60
2021/06/16 04:04:27;;;;;;;0.00;0.00;;;20.50;97.90;;;;;;5067720;28;20031;-60
2021/06/16 04:06:53;;;;;;;0.10;0.10;;;20.50;98.20;;;;;;5067566;28;20043;-60
2021/06/16 04:09:19;;;;;;;0.10;0.10;;;20.50;97.90;;;;;;5067374;28;20074;-60
2021/06/16 04:11:45;;;;;;;0.10;0.10;;;20.60;98.50;;;;;;5067213;28;20040;-61
2021/06/16 04:14:11;;;;;;;0.00;0.00;;;20.60;98.10;;;;;;5066788;28;20050;-60
2021/06/16 04:16:42;;;;;;;0.00;0.00;;;20.70;98.30;;;;;;5067119;28;20060;-60
2021/06/16 04:19:12;;;;;;;0.00;0.00;;;20.70;98.40;;;;;;5067611;28;20024;-60
2021/06/16 04:21:39;;;;;;;0.10;0.10;;;20.70;98.10;;;;;;5066268;28;20128;-61
2021/06/16 04:24:06;;;;;;;0.00;0.00;;;20.70;98.50;;;;;;5067082;28;20063;-61
2021/06/16 04:26:34;;;;;;;0.10;0.10;;;20.70;98.40;;;;;;5066826;28;20460;-60
2021/06/16 04:28:59;;;;;;;0.00;0.00;;;20.70;98.20;;;;;;5066791;28;20781;-61
2021/06/16 04:31:25;;;;;;;0.10;0.10;;;20.70;98.20;;;;;;5066679;28;20033;-60
2021/06/16 04:33:51;;;;;;;0.10;0.10;;;20.70;98.70;;;;;;5067101;28;20094;-61
2021/06/16 04:36:16;;;;;;;0.10;0.10;;;20.70;98.00;;;;;;5081953;28;20039;-60
2021/06/16 04:38:45;;;;;;;0.10;0.10;;;20.60;98.20;;;;;;5066807;28;20032;-61
2021/06/16 04:41:10;;;;;;;0.00;0.00;;;20.60;98.40;;;;;;5066797;28;20043;-60
2021/06/16 04:43:38;;;;;;;0.03;0.03;;;20.50;98.50;;;;;;5069426;28;20044;-61
2021/06/16 04:46:06;;;;;;;0.00;0.00;;;20.50;98.50;;;;;;5068043;28;20068;-61
2021/06/16 04:49:03;;;;;;;0.00;0.00;;;20.50;98.60;;;;;;5067026;28;20120;-60
2021/06/16 04:51:37;;;;;;;0.03;0.03;;;20.50;98.70;;;;;;5060473;28;20445;-62
2021/06/16 04:54:02;;;;;;;0.00;0.00;;;20.60;98.90;;;;;;5067341;28;20040;-61
2021/06/16 04:56:28;;;;;;;0.00;0.00;;;20.60;98.70;;;;;;5065871;28;20055;-60
2021/06/16 04:58:54;;;;;;;0.00;0.00;;;20.60;98.80;;;;;;5066128;28;20056;-61
2021/06/16 05:01:19;;;;;;;0.03;0.03;;;20.60;98.70;;;;;;5066207;28;20173;-61
2021/06/16 05:03:45;;;;;;;0.10;0.10;;;20.70;98.70;;;;;;5064710;28;20075;-61
2021/06/16 05:06:13;;;;;;;0.10;0.10;;;20.70;98.70;;;;;;5066188;28;20138;-61
2021/06/16 05:08:44;;;;;;;0.00;0.00;;;20.80;98.60;;;;;;5066019;28;20029;-61
2021/06/16 05:11:10;;;;;;;0.10;0.10;;;20.80;98.60;;;;;;5064722;28;20033;-60
2021/06/16 05:13:36;;;;;;;0.00;0.00;;;20.80;98.60;;;;;;5065188;28;20089;-60
2021/06/16 05:16:04;;;;;;;0.00;0.00;;;20.80;98.60;;;;;;5066372;28;20032;-61
2021/06/16 05:18:30;;;;;;;0.00;0.00;;;20.80;98.70;;;;;;5063854;28;20108;-60
2021/06/16 05:20:59;;;;;;;0.10;0.10;;;20.80;98.90;;;;;;5066070;28;20036;-60
2021/06/16 05:23:31;;;;;;;0.00;0.00;;;20.90;98.60;;;;;;5065507;28;20028;-60
2021/06/16 05:25:57;;;;;;;0.00;0.00;;;20.90;98.60;;;;;;5065598;28;20059;-60
2021/06/16 05:28:23;;;;;;;0.00;0.00;;;20.90;98.30;;;;;;5064202;28;20174;-60
2021/06/16 05:30:51;;;;;;;0.00;0.00;;;20.90;98.70;;;;;;5065577;28;20043;-61
2021/06/16 05:33:16;;;;;;;0.03;0.03;;;20.90;98.50;;;;;;5064386;28;20028;-61
2021/06/16 05:35:45;;;;;;;0.00;0.00;;;20.90;98.40;;;;;;5062535;28;20028;-61
2021/06/16 05:38:17;;;;;;;0.10;0.10;;;20.90;98.60;;;;;;5064757;28;20060;-62
2021/06/16 05:40:43;;;;;;;0.10;0.10;;;20.90;98.60;;;;;;5064814;28;20059;-61
2021/06/16 05:43:11;;;;;;;0.00;0.00;;;21.00;98.70;;;;;;5065758;28;20048;-61
2021/06/16 05:45:36;;;;;;;0.03;0.03;;;21.00;98.50;;;;;;5064707;28;20036;-61
2021/06/16 05:48:04;;;;;;;0.00;0.00;;;21.10;98.60;;;;;;5065085;28;20577;-61
2021/06/16 05:50:30;;;;;;;0.00;0.00;;;21.10;98.50;;;;;;5065459;28;20032;-61
2021/06/16 05:52:56;;;;;;;0.10;0.10;;;21.10;98.20;;;;;;5064790;28;20047;-62
2021/06/16 05:55:24;;;;;;;0.05;0.05;;;21.00;98.40;;;;;;5065087;28;20136;-61
2021/06/16 05:58:16;;;;;;;0.03;0.03;;;21.10;98.60;;;;;;5064889;28;20055;-61
2021/06/16 06:01:02;;;;;;;0.10;0.10;;;21.00;98.60;;;;;;5064676;28;20098;-62
2021/06/16 06:03:32;;;;;;;0.10;0.10;;;21.10;98.50;;;;;;5064442;28;20130;-61
2021/06/16 06:06:12;;;;;;;0.10;0.10;;;21.20;98.40;;;;;;5064436;28;20028;-61
2021/06/16 06:08:40;;;;;;;0.10;0.10;;;21.20;97.90;;;;;;5050080;28;20079;-61
2021/06/16 06:11:16;;;;;;;0.03;0.03;;;21.20;97.70;;;;;;5065092;28;20037;-61
2021/06/16 06:14:25;;;;;;;0.10;0.10;;;21.20;97.70;;;;;;5065401;28;20082;-61
2021/06/16 06:17:03;;;;;;;0.10;0.10;;;21.30;97.70;;;;;;5064845;28;20036;-61
2021/06/16 06:19:34;;;;;;;0.00;0.00;;;21.40;97.80;;;;;;5065011;28;20541;-60
2021/06/16 06:22:02;;;;;;;0.10;0.10;;;21.50;97.70;;;;;;5064554;28;20368;-61
2021/06/16 06:24:28;;;;;;;0.00;0.00;;;21.70;97.50;;;;;;5064045;28;20120;-61
2021/06/16 06:26:53;;;;;;;0.08;0.08;;;21.80;97.20;;;;;;5064728;28;20440;-61
2021/06/16 06:29:22;;;;;;;0.10;0.10;;;21.80;96.80;;;;;;5064877;28;20028;-61
2021/06/16 06:31:47;;;;;;;0.10;0.10;;;21.80;96.70;;;;;;5063865;28;20183;-60
2021/06/16 06:34:13;;;;;;;0.10;0.10;;;21.80;97.20;;;;;;5065632;28;20609;-61
2021/06/16 06:36:41;;;;;;;0.10;0.10;;;21.90;97.00;;;;;;5063690;28;20040;-61
2021/06/16 06:39:07;;;;;;;0.10;0.10;;;22.00;96.80;;;;;;5064297;28;20033;-61
2021/06/16 06:41:32;;;;;;;0.00;0.00;;;22.10;96.40;;;;;;5062531;28;20046;-62
2021/06/16 06:43:58;;;;;;;0.03;0.03;;;22.10;96.30;;;;;;5065022;28;20041;-61
2021/06/16 06:46:28;;;;;;;0.10;0.10;;;22.10;96.10;;;;;;5064477;28;20044;-60
2021/06/16 06:48:54;;;;;;;0.10;0.10;;;22.10;96.00;;;;;;5064470;28;20028;-60
2021/06/16 06:51:19;;;;;;;0.00;0.00;;;22.00;96.30;;;;;;5067442;28;20040;-61
2021/06/16 06:53:45;;;;;;;0.00;0.00;;;22.00;96.30;;;;;;5065570;28;20096;-60
2021/06/16 06:56:13;;;;;;;0.10;0.10;;;22.00;96.40;;;;;;5069703;28;20101;-61
2021/06/16 06:58:41;;;;;;;0.10;0.10;;;22.10;96.30;;;;;;5069216;28;20518;-61
2021/06/16 07:01:09;;;;;;;0.10;0.10;;;22.20;96.30;;;;;;5068460;28;20598;-61
2021/06/16 07:03:34;;;;;;;0.00;0.00;;;22.30;96.10;;;;;;5068412;28;20040;-61
2021/06/16 07:06:00;;;;;;;0.10;0.10;;;22.40;95.70;;;;;;5067833;28;20040;-61
2021/06/16 07:08:26;;;;;;;0.10;0.10;;;22.40;95.70;;;;;;5070732;28;20299;-61
2021/06/16 07:10:51;;;;;;;0.05;0.05;;;22.40;95.90;;;;;;5065272;28;20353;-61
2021/06/16 07:13:18;;;;;;;0.10;0.10;;;22.50;95.40;;;;;;5067652;28;20056;-60
2021/06/16 07:15:43;;;;;;;0.03;0.03;;;22.40;95.70;;;;;;5055749;28;20445;-61
2021/06/16 07:18:09;;;;;;;0.03;0.03;;;22.60;96.00;;;;;;5065669;28;20043;-60
2021/06/16 07:20:37;;;;;;;0.00;0.00;;;22.60;95.70;;;;;;5070730;28;20554;-61
2021/06/16 07:23:05;;;;;;;0.00;0.00;;;22.80;95.80;;;;;;5067973;28;20037;-61
2021/06/16 07:25:33;;;;;;;0.00;0.00;;;22.90;95.60;;;;;;5068156;28;20047;-61
2021/06/16 07:27:59;;;;;;;0.00;0.00;;;23.00;95.50;;;;;;5054725;28;20048;-61
2021/06/16 07:30:25;;;;;;;0.00;0.00;;;23.10;95.30;;;;;;5068155;28;20064;-61
2021/06/16 07:32:53;;;;;;;0.00;0.00;;;23.20;95.00;;;;;;5067669;28;20039;-61
2021/06/16 07:35:22;;;;;;;0.10;0.10;;;23.20;94.80;;;;;;5067421;28;20032;-60
2021/06/16 07:37:48;;;;;;;0.00;0.00;;;23.30;95.00;;;;;;5067363;28;20035;-62
2021/06/16 07:40:16;;;;;;;0.00;0.00;;;23.40;94.90;;;;;;5067518;28;20051;-60
2021/06/16 07:42:42;;;;;;;0.00;0.00;;;23.50;94.70;;;;;;5067474;28;20420;-61
2021/06/16 07:45:14;;;;;;;0.00;0.00;;;23.60;94.40;;;;;;5065786;28;20032;-60
2021/06/16 07:47:43;;;;;;;0.00;0.00;;;23.70;94.80;;;;;;5066718;28;20036;-61
2021/06/16 07:50:12;;;;;;;0.00;0.00;;;23.80;94.60;;;;;;5067589;28;20024;-62
2021/06/16 07:56:15;;;;;;;0.00;0.00;;;23.80;94.60;;;;;;5068056;28;20203;-61
2021/06/16 07:58:53;;;;;;;0.00;0.00;;;23.80;94.20;;;;;;5060570;28;20492;-62
2021/06/16 08:01:19;;;;;;;0.00;0.00;;;23.70;94.60;;;;;;5065383;28;20048;-62
2021/06/16 08:03:45;;;;;;;0.10;0.10;;;23.70;94.50;;;;;;5065777;28;20042;-61
2021/06/16 08:06:14;;;;;;;0.00;0.00;;;23.80;94.50;;;;;;5066378;28;20110;-61
2021/06/16 08:08:39;;;;;;;0.00;0.00;;;23.90;94.50;;;;;;5066180;28;20039;-62
2021/06/16 08:11:05;;;;;;;0.00;0.00;;;23.90;94.60;;;;;;5066849;28;20032;-62
2021/06/16 08:13:32;;;;;;;0.00;0.00;;;23.90;94.70;;;;;;5066963;28;20024;-62
2021/06/16 08:15:59;;;;;;;0.00;0.00;;;24.00;94.90;;;;;;5066951;28;20037;-62
2021/06/16 08:18:25;;;;;;;0.00;0.00;;;24.10;94.70;;;;;;5067142;28;20502;-62
2021/06/16 08:20:51;;;;;;;0.00;0.00;;;24.30;94.80;;;;;;5065826;28;20086;-62
2021/06/16 08:23:17;;;;;;;0.00;0.00;;;24.40;94.00;;;;;;5067176;28;20215;-61
2021/06/16 08:25:44;;;;;;;0.00;0.00;;;24.50;93.70;;;;;;5067373;28;20036;-61
2021/06/16 08:28:09;;;;;;;0.00;0.00;;;24.50;93.80;;;;;;5067098;28;20089;-61
2021/06/16 08:30:37;;;;;;;0.00;0.00;;;24.60;93.80;;;;;;5066771;28;20036;-61
2021/06/16 08:33:03;;;;;;;0.00;0.00;;;24.70;93.40;;;;;;5064626;28;20036;-62
2021/06/16 08:35:29;;;;;;;0.00;0.00;;;24.80;93.00;;;;;;5064998;28;20043;-62
2021/06/16 08:37:57;;;;;;;0.00;0.00;;;24.80;93.20;;;;;;5066059;28;20035;-62
2021/06/16 08:40:23;;;;;;;0.00;0.00;;;24.90;93.00;;;;;;5066855;28;20032;-61
2021/06/16 08:42:49;;;;;;;0.00;0.00;;;25.00;92.90;;;;;;5062557;28;20496;-62
2021/06/16 08:45:17;;;;;;;0.00;0.00;;;25.10;92.90;;;;;;5066059;28;20043;-62
2021/06/16 08:47:45;;;;;;;0.00;0.00;;;25.30;92.50;;;;;;5063553;28;20358;-61
2021/06/16 08:50:14;;;;;;;0.00;0.00;;;25.40;92.20;;;;;;5081518;28;20047;-62
2021/06/16 08:52:41;;;;;;;0.00;0.00;;;25.50;91.80;;;;;;5065946;28;20038;-62
2021/06/16 08:55:11;;;;;;;0.00;0.00;;;25.60;92.00;;;;;;5066055;28;20032;-61
2021/06/16 08:57:38;;;;;;;0.00;0.00;;;25.70;91.80;;;;;;5065846;28;20173;-61
2021/06/16 09:00:09;;;;;;;0.00;0.00;;;25.70;90.60;;;;;;5065735;28;20076;-62
2021/06/16 09:02:37;;;;;;;0.00;0.00;;;25.80;90.70;;;;;;5066238;28;20546;-62
2021/06/16 09:05:04;;;;;;;0.00;0.00;;;25.80;91.10;;;;;;5066135;28;20137;-61
2021/06/16 09:07:34;;;;;;;0.00;0.00;;;25.80;91.10;;;;;;5065645;28;20029;-62
2021/06/16 09:10:13;;;;;;;0.00;0.00;;;25.80;90.90;;;;;;5065999;28;20039;-61
2021/06/16 09:12:53;;;;;;;0.00;0.00;;;25.90;91.10;;;;;;5081272;28;20046;-61
2021/06/16 09:15:23;;;;;;;0.00;0.00;;;26.10;90.90;;;;;;5066244;28;20093;-61
2021/06/16 09:18:09;;;;;;;0.00;0.00;;;26.20;90.20;;;;;;5066279;28;21349;-61
2021/06/16 09:20:45;;;;;;;0.00;0.00;;;26.20;89.50;;;;;;5065367;28;20115;-60
2021/06/16 09:23:12;;;;;;;0.00;0.00;;;26.20;90.00;;;;;;5065805;28;20035;-61
2021/06/16 09:25:40;;;;;;;0.00;0.00;;;26.10;89.50;;;;;;5064678;28;20029;-61
2021/06/16 09:28:10;;;;;;;0.00;0.00;;;26.10;88.50;;;;;;5062798;28;20032;-61
2021/06/16 09:30:42;;;;;;;0.00;0.00;;;26.10;88.70;;;;;;5066446;28;20051;-61
2021/06/16 09:33:16;;;;;;;0.00;0.00;;;26.20;89.50;;;;;;5066203;28;20586;-61
2021/06/16 09:35:49;;;;;;;0.00;0.00;;;26.40;90.20;;;;;;5065529;28;20039;-61
2021/06/16 09:38:27;;;;;;;0.00;0.00;;;26.50;88.40;;;;;;5066057;28;20027;-61
2021/06/16 09:40:53;;;;;;;0.00;0.00;;;26.50;88.30;;;;;;5065281;28;20610;-61
2021/06/16 09:43:21;;;;;;;0.00;0.00;;;26.60;87.30;;;;;;5065105;28;20020;-61
2021/06/16 09:46:01;;;;;;;0.00;0.00;;;26.70;87.40;;;;;;5063806;28;20039;-61
2021/06/16 09:48:34;;;;;;;0.00;0.00;;;26.80;88.10;;;;;;5064742;28;20029;-61
2021/06/16 09:51:25;;;;;;;0.00;0.00;;;26.90;87.10;;;;;;5065164;28;20024;-62
2021/06/16 09:53:58;;;;;;;0.00;0.00;;;27.00;86.50;;;;;;5064229;28;20024;-62
2021/06/16 09:56:32;;;;;;;0.00;0.00;;;27.10;85.90;;;;;;5064978;28;20043;-62
2021/06/16 09:58:59;;;;;;;0.00;0.00;;;27.20;86.00;;;;;;5064471;28;20067;-61
2021/06/16 10:01:51;;;;;;;0.00;0.00;;;27.10;84.60;;;;;;5064095;28;20131;-61
2021/06/16 10:04:43;;;;;;;0.00;0.00;;;27.30;85.00;;;;;;5064921;28;20048;-61
2021/06/16 10:07:28;;;;;;;0.00;0.00;;;27.30;83.20;;;;;;5064858;28;20527;-61
2021/06/16 10:10:01;;;;;;;0.00;0.00;;;27.40;82.50;;;;;;5062657;28;20044;-61
2021/06/16 10:12:31;;;;;;;0.10;0.10;;;27.30;82.60;;;;;;5065037;28;20119;-61
2021/06/16 10:15:01;;;;;;;0.00;0.00;;;27.30;81.60;;;;;;5080714;28;20037;-61
2021/06/16 10:17:27;;;;;;;0.00;0.00;;;27.50;83.80;;;;;;5065200;28;20040;-62
2021/06/16 10:19:53;;;;;;;0.00;0.00;;;27.60;82.90;;;;;;5065158;28;20491;-61
2021/06/16 10:22:20;;;;;;;0.00;0.00;;;27.90;82.10;;;;;;5064445;28;20040;-62
2021/06/16 10:24:49;;;;;;;0.00;0.00;;;28.00;80.20;;;;;;5063732;28;20360;-61
2021/06/16 10:27:25;;;;;;;0.00;0.00;;;28.20;80.80;;;;;;5065216;28;20424;-61
2021/06/16 10:29:52;;;;;;;0.00;0.00;;;28.30;80.30;;;;;;5064978;28;20107;-60
2021/06/16 10:32:18;;;;;;;0.00;0.00;;;28.40;78.90;;;;;;5064697;28;20032;-60
2021/06/16 10:34:53;;;;;;;0.00;0.00;;;28.40;78.60;;;;;;5066770;28;20038;-61
2021/06/16 10:37:35;;;;;;;0.00;0.00;;;28.50;77.30;;;;;;5066406;28;20337;-61
2021/06/16 10:40:19;;;;;;;0.00;0.00;;;28.60;76.80;;;;;;5065665;28;20051;-62
2021/06/16 10:43:06;;;;;;;0.00;0.00;;;28.70;76.60;;;;;;5064334;28;20052;-64
2021/06/16 10:45:34;;;;;;;0.00;0.00;;;28.70;76.20;;;;;;5064573;28;20457;-61
2021/06/16 10:48:06;;;;;;;0.00;0.00;;;28.80;76.60;;;;;;5080682;28;20024;-60
2021/06/16 10:50:51;;;;;;;0.10;0.10;;;28.90;75.30;;;;;;5065351;28;20063;-60
2021/06/16 10:53:16;;;;;;;0.00;0.00;;;29.00;71.80;;;;;;5065193;28;20955;-60
2021/06/16 10:55:54;;;;;;;0.00;0.00;;;29.00;71.20;;;;;;5065007;28;20035;-60
2021/06/16 10:58:21;;;;;;;0.00;0.00;;;29.00;73.40;;;;;;5064099;28;20369;-60
2021/06/16 11:01:23;;;;;;;0.00;0.00;;;29.00;74.30;;;;;;5063471;28;20052;-60
2021/06/16 11:03:52;;;;;;;0.00;0.00;;;29.20;72.60;;;;;;5064332;28;20049;-60
2021/06/16 11:06:34;;;;;;;0.00;0.00;;;29.20;71.20;;;;;;5079477;28;20024;-60
2021/06/16 11:09:00;;;;;;;0.00;0.00;;;29.10;72.10;;;;;;5063889;28;20028;-60
2021/06/16 11:11:59;;;;;;;0.00;0.00;;;29.20;71.40;;;;;;5064247;28;20040;-60
2021/06/16 11:14:37;;;;;;;0.00;0.00;;;29.30;68.60;;;;;;5064032;28;20032;-61
2021/06/16 11:17:07;;;;;;;0.00;0.00;;;29.30;70.10;;;;;;5066093;28;20372;-61
2021/06/16 11:19:36;;;;;;;0.00;0.00;;;29.50;69.90;;;;;;5079943;28;20047;-63
2021/06/16 11:22:08;;;;;;;0.00;0.00;;;29.70;67.40;;;;;;5051463;28;20029;-61
2021/06/16 11:24:52;;;;;;;;;;;30.00;68.00;;;;;;5065183;28;20475;-61
2021/06/16 11:27:55;;;;;;;0.00;0.00;;;30.00;66.80;;;;;;5064039;28;20064;-61
2021/06/16 11:30:39;;;;;;;0.00;0.00;;;30.20;64.60;;;;;;5064787;28;20025;-61
2021/06/16 11:33:28;;;;;;;0.00;0.00;;;30.50;64.10;;;;;;5064965;28;20028;-61
2021/06/16 11:35:58;;;;;;;0.00;0.00;;;30.70;64.20;;;;;;5080526;28;20032;-61
2021/06/16 11:38:32;;;;;;;0.00;0.00;;;31.00;63.30;;;;;;5063872;28;20028;-60
2021/06/16 11:41:20;;;;;;;0.00;0.00;;;31.80;61.00;;;;;;5067245;28;20032;-60
2021/06/16 11:44:22;;;;;;;0.20;0.20;;;;;;;;;;5066911;28;20439;-60
2021/06/16 11:46:48;;;;;;;0.00;0.00;;;34.10;54.70;;;;;;5045244;28;20139;-61
2021/06/16 11:49:16;;;;;;;0.00;0.00;;;35.00;54.30;;;;;;5063106;28;20127;-61
2021/06/16 11:51:44;;;;;;;0.00;0.00;;;35.90;52.60;;;;;;5069450;28;20055;-62
2021/06/16 11:56:50;;;;;;;0.00;0.00;;;36.80;48.80;;;;;;5067950;28;20112;-61
2021/06/16 11:59:16;;;;;;;0.00;0.00;;;36.70;48.70;;;;;;5067029;28;20028;-61
2021/06/16 12:01:44;;;;;;;0.00;0.00;;;36.80;48.80;;;;;;5067663;28;20177;-61
2021/06/16 12:04:13;;;;;;;0.00;0.00;;;37.10;48.10;;;;;;5051743;28;20032;-61
2021/06/16 12:06:41;;;;;;;0.00;0.00;;;36.90;47.80;;;;;;5066668;28;20017;-61
2021/06/16 12:09:07;;;;;;;0.05;0.05;;;37.60;46.80;;;;;;5067931;28;20028;-62
2021/06/16 12:11:36;;;;;;;0.00;0.00;;;38.40;46.00;;;;;;5066648;28;20030;-62
2021/06/16 12:14:09;;;;;;;0.10;0.10;;;39.20;45.60;;;;;;5067641;28;20028;-62
2021/06/16 12:16:40;;;;;;;0.08;0.08;;;39.70;44.00;;;;;;5067813;28;20371;-61
2021/06/16 12:19:20;;;;;;;0.10;0.10;;;40.30;44.90;;;;;;5067634;28;20105;-61
2021/06/16 12:22:07;;;;;;;0.10;0.10;;;40.40;43.60;;;;;;5067660;28;20058;-61
2021/06/16 12:24:35;;;;;;;0.10;0.10;;;41.30;42.10;;;;;;5066604;28;20036;-62
2021/06/16 12:27:04;;;;;;;0.10;0.10;;;41.10;42.50;;;;;;5066604;28;20039;-62
2021/06/16 12:29:32;;;;;;;0.00;0.00;;;40.50;42.50;;;;;;5067201;28;20032;-61
2021/06/16 12:32:01;;;;;;;0.10;0.10;;;39.90;43.50;;;;;;5067192;28;20103;-61
2021/06/16 12:34:35;;;;;;;0.08;0.08;;;38.90;44.00;;;;;;5066276;28;20055;-62
2021/06/16 12:37:04;;;;;;;0.00;0.00;;;38.40;43.50;;;;;;5066980;28;20031;-62
2021/06/16 12:39:33;;;;;;;0.10;0.10;;;38.90;43.00;;;;;;5066547;28;20036;-61
2021/06/16 12:42:03;;;;;;;0.10;0.10;;;39.30;42.40;;;;;;5066690;28;20024;-61
2021/06/16 12:44:38;;;;;;;;;;;38.70;43.00;;;;;;5067203;28;20074;-61
2021/06/16 12:47:19;;;;;;;0.00;0.00;;;38.00;44.10;;;;;;5066508;28;19911;-61
2021/06/16 12:49:56;;;;;;;0.00;0.00;;;36.80;45.40;;;;;;5064851;28;20044;-61
2021/06/16 12:52:34;;;;;;;0.00;0.00;;;35.50;47.30;;;;;;5066251;28;20024;-62
2021/06/16 12:55:14;;;;;;;0.10;0.10;;;35.40;48.60;;;;;;5082088;28;20032;-61
2021/06/16 12:57:54;;;;;;;0.00;0.00;;;35.10;47.30;;;;;;5065037;28;20406;-61
2021/06/16 13:00:26;;;;;;;0.00;0.00;;;35.00;47.40;;;;;;5066888;28;20033;-61
2021/06/16 13:02:53;;;;;;;0.00;0.00;;;34.60;49.10;;;;;;5066980;28;20077;-61
2021/06/16 13:05:26;;;;;;;0.00;0.00;;;34.50;49.50;;;;;;5065678;28;20059;-61
2021/06/16 13:08:03;;;;;;;0.00;0.00;;;34.10;49.10;;;;;;5066764;28;20405;-62
2021/06/16 13:10:33;;;;;;;0.03;0.03;;;34.70;48.00;;;;;;5064112;28;20522;-62